createdAt,value
2019-04-05T00:00:01.599Z,87.15
2019-04-05T00:05:04.688Z,87.38
2019-04-05T00:10:07.591Z,87.33
2019-04-05T00:15:15.564Z,87.72
2019-04-05T00:20:14.569Z,87.17
2019-04-05T00:25:16.614Z,86.95
2019-04-05T00:30:18.816Z,88.06
2019-04-05T00:35:20.827Z,88.32
2019-04-05T00:40:22.965Z,87.41
2019-04-05T00:45:28.419Z,87.42
2019-04-05T00:50:29.030Z,86.29
2019-04-05T00:55:31.117Z,86.61
2019-04-05T01:00:33.409Z,86.93
2019-04-05T01:05:35.679Z,87.31
2019-04-05T01:10:38.066Z,87.05
2019-04-05T01:15:41.354Z,87.90
2019-04-05T01:20:47.159Z,88.73
2019-04-05T01:25:52.826Z,88.40
2019-04-05T01:30:55.006Z,88.53
2019-04-05T01:35:57.087Z,89.48
2019-04-05T01:40:59.528Z,88.39
2019-04-05T01:46:01.600Z,86.81
2019-04-05T01:51:04.448Z,86.62
2019-04-05T01:56:06.510Z,84.50
2019-04-05T02:01:08.625Z,84.16
2019-04-05T02:06:10.798Z,85.11
2019-04-05T02:11:12.980Z,85.46
2019-04-05T02:16:15.095Z,83.67
2019-04-05T02:21:17.270Z,83.71
2019-04-05T02:26:19.346Z,83.51
2019-04-05T02:31:21.600Z,84.67
2019-04-05T02:36:23.806Z,81.96
2019-04-05T02:41:26.609Z,82.75
2019-04-05T02:46:31.799Z,82.92
2019-04-05T02:51:36.740Z,82.68
2019-04-05T02:56:39.406Z,83.14
2019-04-05T03:01:42.214Z,82.64
2019-04-05T03:06:45.039Z,82.34
2019-04-05T03:11:48.077Z,82.81
2019-04-05T03:16:53.807Z,82.90
2019-04-05T03:22:04.454Z,80.83
2019-04-05T03:27:15.660Z,80.86
2019-04-05T03:32:18.424Z,81.55
2019-04-05T03:37:21.176Z,81.67
2019-04-05T03:42:23.714Z,81.54
2019-04-05T03:47:25.930Z,81.67
2019-04-05T03:52:28.040Z,81.32
2019-04-05T03:57:30.031Z,81.95
2019-04-05T04:02:32.231Z,81.76
2019-04-05T04:07:34.623Z,80.83
2019-04-05T04:12:36.764Z,84.38
2019-04-05T04:17:39.032Z,87.06
2019-04-05T04:22:41.196Z,87.99
2019-04-05T04:27:43.757Z,87.50
2019-04-05T04:32:46.261Z,87.37
2019-04-05T04:37:48.420Z,88.13
2019-04-05T04:42:50.794Z,87.64
2019-04-05T04:47:53.517Z,87.97
2019-04-05T04:52:56.702Z,86.90
2019-04-05T04:57:58.702Z,87.47
2019-04-05T05:03:01.030Z,86.52
2019-04-05T05:08:03.938Z,84.59
2019-04-05T05:13:06.317Z,85.15
2019-04-05T05:18:08.663Z,85.23
2019-04-05T05:23:11.093Z,84.10
2019-04-05T05:28:13.384Z,83.37
2019-04-05T05:33:15.457Z,83.31
2019-04-05T05:38:18.900Z,82.26
2019-04-05T05:43:23.682Z,81.45
2019-04-05T05:48:25.312Z,81.33
2019-04-05T05:53:27.544Z,82.00
2019-04-05T05:58:29.651Z,81.45
2019-04-05T06:03:31.711Z,80.81
2019-04-05T06:08:33.772Z,79.56
2019-04-05T06:13:35.863Z,79.81
2019-04-05T06:18:37.914Z,79.39
2019-04-05T06:23:40.486Z,79.71
2019-04-05T06:28:42.688Z,78.89
2019-04-05T06:33:44.786Z,78.30
2019-04-05T06:38:46.862Z,78.68
2019-04-05T06:43:48.913Z,78.93
2019-04-05T06:48:51.051Z,79.19
2019-04-05T06:53:53.093Z,79.09
2019-04-05T06:58:55.138Z,78.70
2019-04-05T07:03:57.228Z,78.30
2019-04-05T07:08:59.289Z,77.80
2019-04-05T07:14:01.364Z,77.77
2019-04-05T07:19:03.532Z,77.63
2019-04-05T07:24:05.950Z,77.27
2019-04-05T07:29:08.003Z,77.75
2019-04-05T07:34:10.034Z,77.61
2019-04-05T07:39:12.142Z,78.13
2019-04-05T07:44:14.122Z,78.04
2019-04-05T07:49:16.157Z,78.58
2019-04-05T07:54:18.224Z,78.87
2019-04-05T07:59:21.134Z,78.30
2019-04-05T08:04:23.346Z,78.19
2019-04-05T08:09:26.236Z,78.29
2019-04-05T08:14:28.300Z,78.41
2019-04-05T08:19:30.316Z,77.85
2019-04-05T08:24:32.367Z,78.97
2019-04-05T08:29:34.427Z,78.03
2019-04-05T08:34:36.453Z,79.19
2019-04-05T08:39:38.525Z,78.43
2019-04-05T08:44:40.636Z,78.51
2019-04-05T08:49:42.783Z,79.29
2019-04-05T08:54:44.902Z,79.40
2019-04-05T08:59:47.031Z,78.77
2019-04-05T09:04:49.172Z,79.41
2019-04-05T09:09:51.264Z,79.29
2019-04-05T09:14:53.567Z,79.20
2019-04-05T09:19:55.677Z,79.22
2019-04-05T09:24:57.775Z,79.36
2019-04-05T09:29:59.853Z,79.39
2019-04-05T09:35:02.005Z,79.41
2019-04-05T09:40:04.645Z,79.52
2019-04-05T09:45:07.197Z,79.65
2019-04-05T09:50:09.444Z,79.40
2019-04-05T09:55:11.484Z,79.86
2019-04-05T10:00:19.627Z,79.93
2019-04-05T10:05:21.709Z,79.82
2019-04-05T10:10:24.034Z,79.66
2019-04-05T10:15:26.129Z,78.88
2019-04-05T10:20:28.125Z,79.48
2019-04-05T10:25:30.175Z,79.58
2019-04-05T10:30:32.696Z,79.61
2019-04-05T10:35:34.767Z,79.01
2019-04-05T10:40:36.816Z,78.28
2019-04-05T10:45:39.026Z,78.20
2019-04-05T10:50:41.127Z,78.29
2019-04-05T10:55:43.199Z,78.95
2019-04-05T11:00:45.281Z,78.79
2019-04-05T11:05:49.315Z,78.79
2019-04-05T11:10:51.358Z,78.54
2019-04-05T11:15:53.580Z,78.54
2019-04-05T11:20:56.046Z,79.58
2019-04-05T11:25:58.125Z,79.24
2019-04-05T11:31:00.566Z,78.65
2019-04-05T11:36:02.828Z,79.26
2019-04-05T11:41:05.401Z,79.64
2019-04-05T11:46:07.459Z,79.68
2019-04-05T11:51:09.767Z,78.84
2019-04-05T11:56:14.976Z,78.70
2019-04-05T12:01:23.711Z,79.48
2019-04-05T12:06:26.082Z,79.62
2019-04-05T12:11:28.212Z,79.62
2019-04-05T12:16:30.288Z,79.31
2019-04-05T12:21:32.554Z,79.31
2019-04-05T12:26:36.292Z,79.62
2019-04-05T12:31:38.355Z,79.62
2019-04-05T12:36:40.530Z,79.52
2019-04-05T12:41:44.900Z,79.86
2019-04-05T12:46:46.837Z,80.27
2019-04-05T12:51:48.908Z,79.66
2019-04-05T12:56:53.950Z,80.25
2019-04-05T13:01:54.973Z,80.45
2019-04-05T13:06:57.071Z,80.45
2019-04-05T13:11:59.185Z,80.48
2019-04-05T13:17:02.609Z,80.54
2019-04-05T13:22:04.998Z,80.54
2019-04-05T13:27:07.056Z,80.45
2019-04-05T13:32:09.083Z,80.35
2019-04-05T13:37:20.123Z,80.27
2019-04-05T13:42:15.247Z,80.28
2019-04-05T13:47:17.337Z,80.05
2019-04-05T13:52:19.380Z,80.38
2019-04-05T13:57:21.505Z,80.38
2019-04-05T14:02:24.660Z,80.57
2019-04-05T14:07:26.774Z,80.58
2019-04-05T14:12:31.204Z,80.91
2019-04-05T14:17:32.845Z,80.91
2019-04-05T14:22:34.912Z,81.15
2019-04-05T14:27:37.313Z,80.77
2019-04-05T14:32:39.451Z,80.77
2019-04-05T14:37:41.513Z,81.13
2019-04-05T14:42:44.980Z,80.92
2019-04-05T14:47:47.522Z,80.99
2019-04-05T14:52:49.890Z,81.26
2019-04-05T14:57:52.050Z,81.26
2019-04-05T15:02:54.115Z,80.36
2019-04-05T15:07:56.254Z,80.36
2019-04-05T15:13:00.279Z,80.35
2019-04-05T15:18:02.336Z,80.35
2019-04-05T15:23:05.018Z,80.29
2019-04-05T15:28:07.081Z,80.43
2019-04-05T15:33:09.238Z,80.37
2019-04-05T15:38:11.401Z,80.23
2019-04-05T15:43:13.531Z,79.80
2019-04-05T15:48:15.686Z,79.68
2019-04-05T15:53:17.793Z,80.63
2019-04-05T15:58:19.935Z,81.08
2019-04-05T16:03:21.964Z,80.73
2019-04-05T16:08:24.142Z,80.67
2019-04-05T16:13:26.280Z,80.78
2019-04-05T16:18:28.339Z,81.20
2019-04-05T16:23:30.379Z,81.40
2019-04-05T16:28:32.390Z,81.76
2019-04-05T16:33:34.853Z,82.35
2019-04-05T16:38:36.913Z,82.54
2019-04-05T16:43:38.982Z,83.01
2019-04-05T16:48:40.990Z,83.35
2019-04-05T16:53:59.496Z,83.73
2019-04-05T16:59:01.522Z,84.15
2019-04-05T17:04:03.696Z,83.96
2019-04-05T17:09:07.775Z,83.85
2019-04-05T17:14:09.872Z,84.21
2019-04-05T17:19:12.013Z,84.23
2019-04-05T17:24:14.083Z,85.92
2019-04-05T17:29:16.210Z,85.92
2019-04-05T17:34:19.214Z,87.06
2019-04-05T17:39:21.297Z,87.06
2019-04-05T17:44:23.333Z,87.77
2019-04-05T17:49:25.390Z,88.87
2019-04-05T17:54:27.408Z,88.47
2019-04-05T17:59:29.858Z,88.89
2019-04-05T18:04:31.976Z,88.20
2019-04-05T18:09:34.453Z,88.88
2019-04-05T18:14:36.557Z,88.99
2019-04-05T18:19:38.559Z,89.47
2019-04-05T18:24:40.673Z,90.06
2019-04-05T18:29:42.724Z,90.08
2019-04-05T18:34:44.924Z,89.39
2019-04-05T18:39:47.074Z,90.25
2019-04-05T18:44:49.210Z,90.48
2019-04-05T18:50:02.397Z,90.86
2019-04-05T18:54:55.281Z,91.73
2019-04-05T18:59:57.355Z,91.50
2019-04-05T19:04:59.464Z,90.78
2019-04-05T19:10:01.798Z,91.91
2019-04-05T19:15:04.466Z,92.54
2019-04-05T19:20:06.894Z,93.19
2019-04-05T19:25:09.568Z,93.19
2019-04-05T19:50:27.792Z,92.61
2019-04-05T19:55:29.805Z,91.82
2019-04-05T20:00:31.873Z,92.07
2019-04-05T20:05:33.934Z,92.28
2019-04-05T20:10:36.031Z,92.37
2019-04-05T20:15:38.070Z,92.15
2019-04-05T20:20:40.581Z,92.29
2019-04-05T20:25:42.587Z,92.10
2019-04-05T20:30:44.608Z,92.29
2019-04-05T20:35:46.703Z,92.40
2019-04-05T20:40:48.796Z,92.94
2019-04-05T20:45:50.847Z,92.62
2019-04-05T20:50:52.959Z,92.88
2019-04-05T20:55:55.003Z,92.51
2019-04-05T21:00:59.281Z,92.43
2019-04-05T21:06:01.054Z,92.08
2019-04-05T21:11:03.418Z,91.87
2019-04-05T21:16:05.489Z,92.24
2019-04-05T21:21:07.543Z,92.19
2019-04-05T21:26:09.858Z,92.30
2019-04-05T21:31:11.927Z,92.22
2019-04-05T21:36:13.974Z,92.61
2019-04-05T21:41:16.409Z,92.26
2019-04-05T21:46:18.485Z,91.91
2019-04-05T21:51:20.503Z,92.09
2019-04-05T21:56:22.533Z,92.81
2019-04-05T22:01:26.309Z,92.55
2019-04-05T22:06:28.360Z,92.31
2019-04-05T22:11:30.458Z,92.34
2019-04-05T22:16:32.486Z,92.07
2019-04-05T22:21:34.540Z,91.99
2019-04-05T22:26:36.678Z,92.11
2019-04-05T22:31:38.709Z,92.38
2019-04-05T22:36:40.833Z,92.43
2019-04-05T22:41:42.914Z,92.23
2019-04-05T22:46:44.977Z,92.61
2019-04-05T22:51:47.038Z,92.39
2019-04-05T22:56:49.075Z,92.24
2019-04-05T23:01:51.235Z,92.25
2019-04-05T23:06:53.248Z,91.87
2019-04-05T23:11:55.314Z,91.86
2019-04-05T23:16:57.415Z,91.79
2019-04-05T23:22:00.933Z,92.04
2019-04-05T23:27:03.298Z,91.37
2019-04-05T23:32:05.573Z,91.65
2019-04-05T23:37:07.671Z,91.05
2019-04-05T23:42:09.752Z,91.54
2019-04-05T23:47:12.081Z,91.32
2019-04-05T23:52:14.157Z,91.65
2019-04-05T23:57:16.198Z,91.44
